Time;durP1;ratioP1;P1;durP2;ratioP2;P2;SDS_P1;SDS_P2;PMS_P1;PMS_P2;Temp;Humidity;BMP_temperature;BMP_pressure;BME280_temperature;BME280_humidity;BME280_pressure;Samples;Min_cycle;Max_cycle;Signal;HPM_P1;HPM_P2
2021/05/23 00:00:28;;;;;;;4.03;1.60;;;;;;;8.31;90.48;92322.94;4955389;29;20043;-74
2021/05/23 00:02:57;;;;;;;3.03;1.63;;;;;;;8.32;90.23;92319.28;4954133;28;20027;-74
2021/05/23 00:05:27;;;;;;;4.32;1.88;;;;;;;8.32;89.87;92324.47;4938140;29;20530;-74
2021/05/23 00:07:56;;;;;;;3.28;1.48;;;;;;;8.32;89.57;92324.47;4955345;29;20039;-74
2021/05/23 00:10:24;;;;;;;2.03;1.40;;;;;;;8.31;89.71;92315.13;4939403;28;20050;-73
2021/05/23 00:12:51;;;;;;;1.90;1.20;;;;;;;8.33;90.20;92318.19;4957226;28;20035;-74
2021/05/23 00:15:31;;;;;;;3.53;1.50;;;;;;;8.34;90.50;92319.78;4974410;28;20082;-74
2021/05/23 00:17:56;;;;;;;3.38;1.42;;;;;;;8.34;90.40;92306.72;4974277;28;20043;-74
2021/05/23 00:20:25;;;;;;;4.85;1.50;;;;;;;8.34;90.20;92311.94;4974212;28;20042;-74
2021/05/23 00:22:51;;;;;;;4.88;1.60;;;;;;;8.32;91.17;92316.66;4947040;29;20058;-74
2021/05/23 00:25:20;;;;;;;2.58;1.40;;;;;;;8.31;90.69;92307.28;4974160;28;20043;-74
2021/05/23 00:27:46;;;;;;;4.05;1.70;;;;;;;8.30;90.89;92316.16;4974190;28;20050;-75
2021/05/23 00:30:14;;;;;;;2.40;1.40;;;;;;;8.30;90.49;92316.16;4974310;28;20039;-75
2021/05/23 00:32:40;;;;;;;3.38;1.30;;;;;;;8.30;90.74;92316.94;4956852;28;20043;-75
2021/05/23 00:35:06;;;;;;;2.22;1.40;;;;;;;8.32;90.60;92316.66;4974218;28;20080;-75
2021/05/23 00:37:32;;;;;;;2.45;1.40;;;;;;;8.33;90.58;92310.38;4969313;28;20066;-75
2021/05/23 00:39:57;;;;;;;4.32;1.30;;;;;;;8.34;90.29;92306.72;4954583;29;20043;-75
2021/05/23 00:42:23;;;;;;;3.00;1.40;;;;;;;8.34;90.09;92299.69;4954895;29;20463;-75
2021/05/23 00:44:49;;;;;;;2.05;1.45;;;;;;;8.42;89.10;92302.75;4954705;29;20042;-74
2021/05/23 00:47:15;;;;;;;1.90;1.27;;;;;;;8.44;88.62;92300.66;4967637;28;20055;-75
2021/05/23 00:49:41;;;;;;;2.03;1.40;;;;;;;8.47;88.71;92303.50;4973885;28;20035;-75
2021/05/23 00:52:07;;;;;;;4.38;1.40;;;;;;;8.47;89.11;92302.72;4973892;28;20049;-75
2021/05/23 00:54:34;;;;;;;2.38;1.50;;;;;;;8.46;90.29;92309.75;4973819;28;20055;-75
2021/05/23 00:57:00;;;;;;;2.90;1.50;;;;;;;8.43;90.15;92297.28;4973782;28;20041;-75
2021/05/23 00:59:26;;;;;;;3.70;1.42;;;;;;;8.47;90.06;92302.72;4973594;28;20050;-74
2021/05/23 01:01:55;;;;;;;2.97;1.40;;;;;;;8.45;89.84;92308.22;4973720;28;20739;-75
2021/05/23 01:04:21;;;;;;;2.38;1.40;;;;;;;8.45;89.25;92303.00;4973691;28;20100;-75
2021/05/23 01:06:47;;;;;;;2.05;1.30;;;;;;;8.45;88.81;92300.38;4973934;28;20031;-75
2021/05/23 01:09:13;;;;;;;2.90;1.35;;;;;;;8.45;89.72;92303.00;4973377;28;20046;-74
2021/05/23 01:11:42;;;;;;;2.75;1.70;;;;;;;8.46;90.00;92307.16;4973551;28;20042;-74
2021/05/23 01:14:49;;;;;;;2.97;1.40;;;;;;;8.45;89.36;92287.34;4973371;28;20521;-74
2021/05/23 01:17:17;;;;;;;2.92;1.30;;;;;;;8.47;88.94;92287.84;4973430;28;20121;-75
2021/05/23 01:20:05;;;;;;;2.42;1.33;;;;;;;8.45;88.92;92287.34;4973379;28;20046;-75
2021/05/23 01:22:39;;;;;;;2.45;1.60;;;;;;;8.45;89.13;92297.00;4973222;28;20057;-75
2021/05/23 01:25:12;;;;;;;4.75;1.50;;;;;;;8.40;89.51;92321.31;4973347;28;20047;-75
2021/05/23 01:27:44;;;;;;;2.55;1.30;;;;;;;8.30;89.53;92344.84;4988193;28;20054;-75
2021/05/23 01:30:11;;;;;;;;;;;;;;;8.27;89.30;92324.53;4973639;28;20106;-74
2021/05/23 01:32:37;;;;;;;2.63;1.40;;;;;;;8.25;88.95;92308.38;4972800;28;19932;-75
2021/05/23 01:35:12;;;;;;;3.28;1.40;;;;;;;8.25;89.09;92303.19;4939819;28;20061;-74
2021/05/23 01:37:37;;;;;;;3.88;1.52;;;;;;;8.24;88.99;92302.41;4972884;28;20107;-75
2021/05/23 01:40:04;;;;;;;3.45;1.80;;;;;;;8.27;89.05;92295.84;4972884;28;20100;-75
2021/05/23 01:42:31;;;;;;;3.20;1.60;;;;;;;8.28;90.13;92302.59;4955556;28;20549;-75
2021/05/23 01:44:57;;;;;;;4.13;1.63;;;;;;;8.28;89.82;92307.81;4955518;28;20054;-74
2021/05/23 01:47:23;;;;;;;1.90;1.30;;;;;;;8.29;90.38;92298.97;4953232;28;20050;-75
2021/05/23 01:49:48;;;;;;;5.05;1.70;;;;;;;8.31;89.47;92287.19;4972995;28;20047;-74
2021/05/23 01:52:14;;;;;;;34.10;2.45;;;;;;;8.34;89.26;92291.09;4972834;28;20081;-75
2021/05/23 01:54:40;;;;;;;15.10;2.03;;;;;;;8.11;90.81;92298.59;4987721;28;20070;-74
2021/05/23 01:57:05;;;;;;;12.13;1.90;;;;;;;8.04;91.83;92300.75;4972793;28;20058;-75
2021/05/23 01:59:31;;;;;;;126.90;4.35;;;;;;;8.06;92.25;92303.06;4955608;28;20039;-75
2021/05/23 02:01:57;;;;;;;6.22;2.00;;;;;;;7.98;91.49;92309.66;4955268;28;20074;-74
2021/05/23 02:04:23;;;;;;;3.40;2.00;;;;;;;7.98;91.36;92309.66;4972590;28;20125;-74
2021/05/23 02:06:50;;;;;;;2.90;1.80;;;;;;;7.96;90.72;92308.38;4972672;28;20501;-75
2021/05/23 02:09:16;;;;;;;3.20;1.80;;;;;;;7.97;91.52;92307.31;4972476;28;20035;-74
2021/05/23 02:11:43;;;;;;;4.57;1.67;;;;;;;7.97;91.36;92307.31;4972561;28;20092;-75
2021/05/23 02:14:09;;;;;;;3.53;1.80;;;;;;;7.96;91.39;92298.72;4972379;28;20039;-75
2021/05/23 02:16:35;;;;;;;6.80;1.92;;;;;;;7.98;91.42;92296.63;4972378;28;20057;-75
2021/05/23 02:19:01;;;;;;;4.15;1.60;;;;;;;7.99;91.28;92303.38;4972353;28;20039;-75
2021/05/23 02:21:27;;;;;;;3.10;1.65;;;;;;;8.00;90.04;92298.97;4955004;28;20070;-75
2021/05/23 02:23:55;;;;;;;3.15;1.67;;;;;;;8.01;90.91;92293.47;4971142;28;20401;-75
2021/05/23 02:26:22;;;;;;;3.30;1.80;;;;;;;8.03;91.05;92285.38;4971881;28;20042;-75
2021/05/23 02:28:49;;;;;;;6.40;1.80;;;;;;;8.06;91.54;92282.22;4987235;28;20102;-75
2021/05/23 02:31:15;;;;;;;3.60;1.83;;;;;;;8.08;91.90;92287.94;4955078;28;20074;-75
2021/05/23 02:33:40;;;;;;;3.33;1.88;;;;;;;8.09;91.92;92285.06;4986755;28;20038;-75
2021/05/23 02:36:07;;;;;;;3.10;1.80;;;;;;;8.11;91.87;92282.97;4972167;28;20062;-74
2021/05/23 02:38:32;;;;;;;3.60;2.00;;;;;;;8.17;91.99;92281.06;4972005;28;20042;-74
2021/05/23 02:40:58;;;;;;;3.75;1.83;;;;;;;8.19;91.80;92271.13;4971850;28;20039;-74
2021/05/23 02:43:24;;;;;;;5.45;2.15;;;;;;;8.20;91.84;92277.16;4954813;28;20031;-75
2021/05/23 02:45:51;;;;;;;3.05;1.85;;;;;;;8.23;92.37;92281.81;4969920;28;20066;-74
2021/05/23 02:48:17;;;;;;;4.45;2.08;;;;;;;8.22;91.59;92282.84;4938687;28;20050;-75
2021/05/23 02:50:45;;;;;;;3.75;1.80;;;;;;;8.22;91.37;92281.03;4972152;28;20074;-75
2021/05/23 02:53:12;;;;;;;6.20;1.73;;;;;;;8.23;91.41;92279.19;4986640;28;20035;-74
2021/05/23 02:55:40;;;;;;;3.63;2.00;;;;;;;8.25;91.82;92272.66;4972024;28;20284;-75
2021/05/23 02:58:06;;;;;;;3.85;1.90;;;;;;;8.31;92.28;92276.00;4986603;28;20057;-74
2021/05/23 03:00:32;;;;;;;3.85;1.90;;;;;;;8.28;91.98;92279.13;4938400;28;20461;-74
2021/05/23 03:02:58;;;;;;;9.90;2.15;;;;;;;8.19;91.72;92286.78;4971467;28;20046;-75
2021/05/23 03:05:24;;;;;;;5.15;2.13;;;;;;;8.17;91.35;92281.06;4971908;28;20038;-75
2021/05/23 03:07:52;;;;;;;4.22;2.00;;;;;;;8.16;91.53;92278.75;4971805;28;20031;-75
2021/05/23 03:10:32;;;;;;;5.15;1.90;;;;;;;8.18;91.71;92281.88;4986750;28;20424;-75
2021/05/23 03:12:58;;;;;;;3.20;1.70;;;;;;;8.21;90.15;92276.09;4971824;28;20409;-75
2021/05/23 03:15:26;;;;;;;3.30;1.65;;;;;;;8.25;90.40;92284.91;4971803;28;20035;-74
2021/05/23 03:17:53;;;;;;;3.10;2.00;;;;;;;8.27;90.25;92290.63;4954378;28;20126;-74
2021/05/23 03:20:20;;;;;;;4.03;2.10;;;;;;;8.28;90.56;92286.97;4971549;28;20614;-74
2021/05/23 03:22:50;;;;;;;3.90;2.03;;;;;;;8.30;90.95;92285.63;4971880;28;20066;-74
2021/05/23 03:25:18;;;;;;;4.10;2.10;;;;;;;8.32;90.79;92280.16;4971859;28;20046;-74
2021/05/23 03:27:44;;;;;;;3.53;1.80;;;;;;;8.34;90.51;92280.66;4971731;28;20124;-74
2021/05/23 03:30:13;;;;;;;6.53;2.10;;;;;;;8.36;90.65;92278.53;4971837;28;20093;-74
2021/05/23 03:32:39;;;;;;;4.78;2.20;;;;;;;8.40;90.58;92284.78;4971867;28;20034;-74
2021/05/23 03:35:06;;;;;;;5.10;2.05;;;;;;;8.42;89.17;92282.69;4970359;28;20142;-74
2021/05/23 03:37:32;;;;;;;5.60;2.22;;;;;;;8.40;90.24;92282.19;4986817;28;20055;-74
2021/05/23 03:39:57;;;;;;;4.70;1.88;;;;;;;8.39;91.10;92282.44;4975217;28;20049;-74
2021/05/23 03:42:23;;;;;;;3.38;2.00;;;;;;;8.36;91.14;92283.00;4975052;28;20035;-74
2021/05/23 03:44:49;;;;;;;7.05;2.20;;;;;;;8.34;90.75;92281.41;4975019;28;20585;-74
2021/05/23 03:47:14;;;;;;;3.85;2.00;;;;;;;8.33;90.61;92274.66;4955617;28;20063;-74
2021/05/23 03:49:40;;;;;;;4.88;2.17;;;;;;;8.31;91.19;92281.97;4974801;28;20055;-75
2021/05/23 03:52:08;;;;;;;5.53;2.50;;;;;;;8.31;91.44;92289.03;4989992;28;20042;-74
2021/05/23 03:54:34;;;;;;;6.00;2.58;;;;;;;8.24;91.15;92291.97;4990112;28;20059;-74
2021/05/23 03:57:00;;;;;;;5.70;2.58;;;;;;;8.28;91.08;92292.19;4941468;28;20042;-75
2021/05/23 03:59:25;;;;;;;5.95;2.30;;;;;;;8.27;91.04;92288.81;4974636;28;20480;-75
2021/05/23 04:01:52;;;;;;;6.53;2.42;;;;;;;8.27;90.58;92286.19;4956989;28;20172;-74
2021/05/23 04:04:21;;;;;;;6.75;2.60;;;;;;;8.27;90.64;92278.38;4974781;28;20413;-74
2021/05/23 04:06:47;;;;;;;4.05;2.10;;;;;;;8.31;90.70;92291.66;4974789;28;20054;-74
2021/05/23 04:09:13;;;;;;;5.93;2.40;;;;;;;8.32;90.95;92288.75;4974398;28;20559;-74
2021/05/23 04:11:42;;;;;;;5.57;2.17;;;;;;;8.36;91.50;92286.38;4989669;28;20043;-74
2021/05/23 04:14:08;;;;;;;9.20;2.60;;;;;;;8.40;92.20;92287.41;4973409;28;20145;-74
2021/05/23 04:16:34;;;;;;;8.65;3.10;;;;;;;8.42;92.26;92290.53;4974523;28;20122;-74
2021/05/23 04:18:59;;;;;;;5.95;2.70;;;;;;;8.44;91.74;92292.81;4941112;28;20368;-74
2021/05/23 04:21:25;;;;;;;6.78;2.80;;;;;;;8.45;91.23;92302.22;4956780;28;20519;-73
2021/05/23 04:23:50;;;;;;;4.78;2.70;;;;;;;8.46;90.43;92304.53;4974440;28;20043;-74
2021/05/23 04:26:16;;;;;;;4.35;2.15;;;;;;;8.50;90.63;92310.75;4989282;28;20490;-75
2021/05/23 04:28:42;;;;;;;5.03;2.65;;;;;;;8.52;91.39;92308.66;4974170;28;20137;-74
2021/05/23 04:31:07;;;;;;;7.95;2.13;;;;;;;8.54;90.88;92311.78;4957035;28;20535;-74
2021/05/23 04:33:33;;;;;;;6.55;2.22;;;;;;;8.55;90.66;92305.47;4940753;28;20524;-74
2021/05/23 04:35:59;;;;;;;4.63;2.20;;;;;;;8.58;90.23;92312.00;4989105;28;20046;-74
2021/05/23 04:38:24;;;;;;;4.97;2.20;;;;;;;8.60;90.06;92319.53;4974073;28;20077;-74
2021/05/23 04:40:50;;;;;;;3.83;2.35;;;;;;;8.65;90.57;92316.88;4974005;28;20053;-74
2021/05/23 04:43:16;;;;;;;6.22;2.10;;;;;;;8.64;90.52;92308.25;4974032;28;20042;-73
2021/05/23 04:45:41;;;;;;;6.80;2.95;;;;;;;8.67;91.50;92312.94;4954571;28;20082;-74
2021/05/23 04:48:07;;;;;;;4.82;2.30;;;;;;;8.70;90.74;92319.44;4988631;28;20054;-74
2021/05/23 04:50:34;;;;;;;8.68;2.35;;;;;;;8.70;89.18;92319.44;4973765;28;20122;-74
2021/05/23 04:53:00;;;;;;;7.40;1.70;;;;;;;8.65;87.51;92322.13;4956906;28;20371;-74
2021/05/23 04:55:26;;;;;;;3.03;1.48;;;;;;;8.75;87.42;92314.91;4956605;28;20512;-74
2021/05/23 04:57:52;;;;;;;3.47;1.50;;;;;;;8.83;87.00;92318.78;4973641;28;20035;-74
2021/05/23 05:00:18;;;;;;;4.50;1.83;;;;;;;8.86;87.79;92323.41;4973618;28;20059;-75
2021/05/23 05:02:44;;;;;;;5.18;1.75;;;;;;;8.89;87.85;92316.88;4988690;28;20493;-74
2021/05/23 05:05:13;;;;;;;3.55;1.90;;;;;;;8.93;87.23;92312.63;4956522;28;20054;-75
2021/05/23 05:07:39;;;;;;;3.83;1.92;;;;;;;9.00;87.18;92307.84;4956253;28;20489;-75
2021/05/23 05:10:06;;;;;;;6.95;2.00;;;;;;;9.10;87.45;92317.41;4955921;28;20053;-74
2021/05/23 05:12:32;;;;;;;3.55;1.90;;;;;;;9.24;87.02;92330.56;4988194;28;20081;-76
2021/05/23 05:14:57;;;;;;;23.60;2.28;;;;;;;8.87;89.23;92332.81;4962746;28;20071;-75
2021/05/23 05:17:23;;;;;;;2.92;1.60;;;;;;;8.96;87.06;92338.97;4984394;28;20460;-76
2021/05/23 05:19:49;;;;;;;4.78;1.52;;;;;;;9.15;85.57;92336.38;4957607;28;20078;-76
2021/05/23 05:22:14;;;;;;;7.25;1.80;;;;;;;9.23;85.86;92336.81;4992435;28;20125;-76
2021/05/23 05:24:40;;;;;;;6.50;1.60;;;;;;;9.30;85.88;92338.03;4972924;28;20100;-75
2021/05/23 05:27:06;;;;;;;3.08;1.58;;;;;;;9.48;86.25;92338.31;4955934;28;20043;-75
2021/05/23 05:29:32;;;;;;;2.70;1.67;;;;;;;9.63;85.65;92345.94;4972805;28;20299;-75
2021/05/23 05:31:58;;;;;;;2.42;1.45;;;;;;;9.72;84.11;92349.47;4955637;28;20441;-75
2021/05/23 05:34:24;;;;;;;2.38;1.50;;;;;;;9.67;84.66;92352.16;4955927;28;20129;-76
2021/05/23 05:36:50;;;;;;;4.85;1.42;;;;;;;9.91;83.21;92352.09;4955513;28;20458;-76
2021/05/23 05:39:15;;;;;;;3.88;1.40;;;;;;;10.15;82.07;92357.19;4955656;28;20069;-76
2021/05/23 05:41:41;;;;;;;6.82;1.50;;;;;;;10.32;82.12;92361.94;4955496;28;20035;-76
2021/05/23 05:44:06;;;;;;;6.10;1.80;;;;;;;10.50;83.04;92360.34;4955786;28;20054;-77
2021/05/23 05:46:32;;;;;;;2.28;1.50;;;;;;;10.69;81.81;92356.88;4943335;29;20202;-76
2021/05/23 05:48:58;;;;;;;3.63;1.70;;;;;;;11.14;81.02;92359.69;4953537;29;20469;-77
2021/05/23 05:51:24;;;;;;;3.78;1.77;;;;;;;11.48;79.37;92361.88;4953674;29;20039;-76
2021/05/23 05:53:51;;;;;;;3.53;1.50;;;;;;;11.88;77.63;92351.63;4958762;28;20041;-78
2021/05/23 05:56:16;;;;;;;9.75;1.95;;;;;;;13.56;71.99;92363.44;4955298;28;20122;-76
2021/05/23 05:58:42;;;;;;;3.30;1.52;;;;;;;14.09;69.01;92349.22;4964547;28;20175;-76
2021/05/23 06:01:08;;;;;;;2.38;1.30;;;;;;;16.17;61.72;92354.78;4932807;28;20047;-76
2021/05/23 06:03:34;;;;;;;2.30;1.20;;;;;;;18.23;55.95;92350.31;4927645;28;20085;-75
2021/05/23 06:06:00;;;;;;;1.80;1.20;;;;;;;14.84;64.51;92355.03;4947486;28;20126;-76
2021/05/23 06:08:26;;;;;;;5.22;1.80;;;;;;;13.16;72.27;92363.47;4942901;28;20046;-76
2021/05/23 06:10:51;;;;;;;5.38;1.80;;;;;;;12.13;75.97;92373.88;4969841;28;20039;-76
2021/05/23 06:13:17;;;;;;;119.55;4.60;;;;;;;11.33;81.29;92375.31;4939841;28;20046;-77
2021/05/23 06:15:43;;;;;;;27.88;2.67;;;;;;;10.98;82.50;92378.31;4974130;28;20043;-77
2021/05/23 06:18:09;;;;;;;9.68;2.50;;;;;;;11.42;79.85;92376.94;4941140;28;20062;-76
2021/05/23 06:20:35;;;;;;;4.88;2.38;;;;;;;12.02;78.20;92383.06;4926048;28;20080;-77
2021/05/23 06:23:00;;;;;;;4.53;2.30;;;;;;;11.85;78.11;92388.91;4956345;28;20508;-76
2021/05/23 06:25:26;;;;;;;128.20;5.57;;;;;;;10.82;84.07;92400.63;4945165;28;20106;-76
2021/05/23 06:27:52;;;;;;;85.13;4.43;;;;;;;10.70;85.45;92393.25;4945032;28;20035;-76
2021/05/23 06:30:19;;;;;;;925.47;25.50;;;;;;;10.53;87.84;92399.00;4941011;28;20039;-77
2021/05/23 06:32:45;;;;;;;897.40;24.27;;;;;;;10.44;86.70;92400.72;4951796;28;20038;-77
2021/05/23 06:35:12;;;;;;;204.63;7.55;;;;;;;10.59;88.54;92397.09;4960928;28;20055;-78
2021/05/23 06:37:38;;;;;;;67.30;4.55;;;;;;;10.76;87.46;92402.56;4952452;29;20593;-77
2021/05/23 06:40:04;;;;;;;288.23;8.73;;;;;;;10.65;87.29;92403.00;4952847;29;20035;-77
2021/05/23 06:42:30;;;;;;;810.15;21.98;;;;;;;10.61;87.58;92398.34;4952519;29;20103;-77
2021/05/23 06:44:56;;;;;;;8.77;3.05;;;;;;;10.74;87.37;92403.88;4951127;29;20059;-77
2021/05/23 06:47:22;;;;;;;6.55;2.97;;;;;;;11.60;83.82;92406.72;4949391;28;20058;-77
2021/05/23 06:49:48;;;;;;;5.68;2.45;;;;;;;12.76;76.99;92410.72;4954274;28;20065;-77
2021/05/23 06:52:14;;;;;;;3.92;2.33;;;;;;;11.98;79.15;92410.94;4953726;28;20038;-77
2021/05/23 06:54:39;;;;;;;7.45;2.38;;;;;;;12.73;78.41;92413.97;4959015;28;20057;-77
2021/05/23 06:57:05;;;;;;;4.15;2.35;;;;;;;12.52;79.64;92411.84;4941909;29;20047;-76
2021/05/23 06:59:31;;;;;;;6.95;2.42;;;;;;;12.54;78.32;92412.31;4952712;29;20142;-77
2021/05/23 07:01:57;;;;;;;5.40;1.88;;;;;;;13.27;76.07;92420.69;4950712;29;20122;-77
2021/05/23 07:04:22;;;;;;;3.30;1.95;;;;;;;13.80;76.21;92420.88;4952574;29;20110;-77
2021/05/23 07:06:48;;;;;;;5.68;1.80;;;;;;;13.33;76.70;92421.38;4953636;28;20038;-77
2021/05/23 07:09:14;;;;;;;5.03;1.85;;;;;;;12.99;78.32;92425.38;4976566;28;20038;-76
2021/05/23 07:11:40;;;;;;;6.68;1.90;;;;;;;13.36;77.00;92423.41;4955043;28;20378;-77
2021/05/23 07:14:06;;;;;;;4.10;1.73;;;;;;;12.62;77.69;92423.94;4958259;28;20117;-77
2021/05/23 07:16:31;;;;;;;3.22;1.80;;;;;;;12.49;79.99;92423.69;4954240;28;20046;-79
2021/05/23 07:18:57;;;;;;;4.55;2.17;;;;;;;12.46;81.21;92428.78;4949579;28;20051;-77
2021/05/23 07:21:23;;;;;;;3.55;2.10;;;;;;;12.77;79.69;92428.81;4989205;28;20046;-77
2021/05/23 07:23:48;;;;;;;3.03;1.70;;;;;;;12.88;77.85;92434.59;4960273;28;20086;-77
2021/05/23 07:26:14;;;;;;;3.05;1.83;;;;;;;12.85;77.64;92429.94;4993313;28;20167;-77
2021/05/23 07:28:40;;;;;;;4.00;1.80;;;;;;;13.05;78.04;92432.03;4994496;28;20073;-77
2021/05/23 07:31:06;;;;;;;6.07;1.80;;;;;;;13.16;76.63;92429.16;4977225;28;20066;-77
2021/05/23 07:33:31;;;;;;;3.90;1.98;;;;;;;12.88;80.66;92435.38;4981811;28;20131;-77
2021/05/23 07:35:57;;;;;;;3.58;1.80;;;;;;;12.84;76.91;92438.91;4958262;28;20066;-77
2021/05/23 07:38:23;;;;;;;3.80;1.60;;;;;;;13.25;77.46;92432.59;4975013;28;20105;-77
2021/05/23 07:40:49;;;;;;;5.43;1.60;;;;;;;13.19;75.93;92431.19;4957886;28;20050;-77
2021/05/23 07:43:15;;;;;;;4.70;2.00;;;;;;;13.05;79.60;92439.94;4976581;28;20057;-77
2021/05/23 07:45:40;;;;;;;3.72;1.80;;;;;;;12.48;80.62;92430.03;4971864;28;20764;-77
2021/05/23 07:48:06;;;;;;;2.28;1.30;;;;;;;12.80;73.51;92435.31;4975145;28;20050;-77
2021/05/23 07:50:33;;;;;;;2.58;1.25;;;;;;;12.96;74.38;92433.84;4956931;28;20342;-77
2021/05/23 07:53:00;;;;;;;6.28;1.70;;;;;;;13.38;76.38;92442.28;4988971;28;20114;-77
2021/05/23 07:55:26;;;;;;;2.97;1.55;;;;;;;12.82;72.14;92433.94;4975152;28;20053;-77
2021/05/23 07:57:51;;;;;;;2.45;1.20;;;;;;;12.97;72.29;92432.78;4957650;28;20055;-77
2021/05/23 08:00:17;;;;;;;3.05;1.40;;;;;;;13.34;73.57;92433.44;4957565;28;20408;-77
2021/05/23 08:02:43;;;;;;;3.03;1.05;;;;;;;13.20;70.96;92435.38;4957372;28;20059;-77
2021/05/23 08:05:10;;;;;;;5.28;1.30;;;;;;;13.38;72.97;92437.00;4957575;28;20130;-77
2021/05/23 08:07:36;;;;;;;1.95;1.13;;;;;;;12.73;77.31;92429.72;4974727;28;20177;-77
2021/05/23 08:10:03;;;;;;;2.90;1.40;;;;;;;13.15;76.01;92432.84;4974721;28;20532;-77
2021/05/23 08:12:29;;;;;;;4.00;1.67;;;;;;;13.20;73.62;92438.78;4941682;28;20460;-77
2021/05/23 08:14:55;;;;;;;2.88;1.40;;;;;;;13.43;73.23;92444.00;4974841;28;20038;-77
2021/05/23 08:17:20;;;;;;;2.58;1.20;;;;;;;13.56;67.97;92437.06;4957138;28;20047;-77
2021/05/23 08:19:46;;;;;;;1.20;0.90;;;;;;;13.48;67.17;92439.34;4976924;28;20150;-77
2021/05/23 08:22:12;;;;;;;3.10;1.35;;;;;;;13.43;70.63;92444.75;4974092;28;20043;-77
2021/05/23 08:24:37;;;;;;;2.28;1.17;;;;;;;13.80;66.88;92442.69;4956335;28;20049;-77
2021/05/23 08:27:03;;;;;;;1.38;0.88;;;;;;;14.10;63.17;92441.03;4974440;28;20046;-77
2021/05/23 08:29:30;;;;;;;4.97;1.23;;;;;;;13.75;62.00;92435.72;4973821;28;20105;-77
2021/05/23 08:32:00;;;;;;;1.70;0.95;;;;;;;13.97;61.04;92441.97;4989757;28;20051;-77
2021/05/23 08:34:27;;;;;;;1.67;0.90;;;;;;;13.66;58.81;92449.94;4973874;28;20117;-77
2021/05/23 08:36:53;;;;;;;2.47;0.90;;;;;;;14.02;59.28;92460.22;4974137;28;20089;-77
2021/05/23 08:39:19;;;;;;;3.80;1.00;;;;;;;13.99;57.48;92454.81;4958355;28;20051;-77
2021/05/23 08:41:46;;;;;;;1.33;0.80;;;;;;;14.10;55.75;92453.44;4993422;28;20053;-77
2021/05/23 08:44:23;;;;;;;1.63;1.10;;;;;;;14.24;63.20;92456.69;4975513;28;20046;-77
2021/05/23 08:46:53;;;;;;;2.75;1.05;;;;;;;14.30;60.93;92466.00;4979338;28;20145;-77
2021/05/23 08:49:21;;;;;;;1.88;0.93;;;;;;;14.28;58.58;92468.16;4974414;28;20043;-77
2021/05/23 08:51:47;;;;;;;2.83;0.90;;;;;;;14.14;62.58;92463.03;4973839;28;20058;-77
2021/05/23 08:54:15;;;;;;;12.80;1.30;;;;;;;14.24;57.83;92464.59;4973997;28;20057;-77
2021/05/23 08:56:42;;;;;;;2.40;1.13;;;;;;;14.43;65.87;92474.03;4956567;28;20117;-77
2021/05/23 08:59:08;;;;;;;0.93;0.70;;;;;;;14.26;57.09;92472.97;4957565;28;20051;-77
2021/05/23 09:01:35;;;;;;;2.15;1.10;;;;;;;14.53;63.79;92468.47;4992963;28;20096;-77
2021/05/23 09:04:03;;;;;;;0.73;0.70;;;;;;;14.56;52.24;92466.00;4992680;28;20050;-77
2021/05/23 09:06:34;;;;;;;0.95;0.75;;;;;;;15.25;55.35;92476.78;4975246;28;20042;-77
2021/05/23 09:09:03;;;;;;;0.95;0.50;;;;;;;15.52;51.30;92475.59;4956384;28;20565;-77
2021/05/23 09:11:29;;;;;;;2.25;0.60;;;;;;;15.52;48.34;92472.97;4973454;28;20425;-77
2021/05/23 09:13:55;;;;;;;1.02;0.68;;;;;;;15.46;51.67;92472.34;4960131;28;20054;-77
2021/05/23 09:16:22;;;;;;;0.80;0.55;;;;;;;15.59;49.65;92481.16;4975077;28;20035;-77
2021/05/23 09:18:56;;;;;;;0.57;0.50;;;;;;;15.54;47.58;92478.69;4939823;28;20413;-77
2021/05/23 09:21:29;;;;;;;1.52;0.70;;;;;;;15.40;48.69;92473.59;4955378;28;20109;-77
2021/05/23 09:24:00;;;;;;;3.65;0.60;;;;;;;15.42;50.95;92474.06;4977763;28;20030;-77
2021/05/23 09:26:26;;;;;;;1.10;0.70;;;;;;;15.59;52.49;92460.81;4992683;28;20053;-77
2021/05/23 09:28:53;;;;;;;3.40;0.70;;;;;;;16.22;46.71;92471.53;4959002;28;20055;-77
2021/05/23 09:31:21;;;;;;;1.13;0.60;;;;;;;16.17;43.80;92479.66;4975000;28;20109;-77
2021/05/23 09:33:50;;;;;;;3.28;0.77;;;;;;;15.81;46.49;92480.16;4980874;28;20034;-77
2021/05/23 09:36:17;;;;;;;0.88;0.50;;;;;;;16.18;44.81;92485.69;4955461;28;20477;-76
2021/05/23 09:39:01;;;;;;;0.80;0.55;;;;;;;16.43;41.87;92497.94;4972954;28;20054;-77
2021/05/23 09:41:32;;;;;;;0.70;0.60;;;;;;;16.11;41.41;92493.34;4973737;28;20043;-76
2021/05/23 09:44:19;;;;;;;0.70;0.40;;;;;;;15.55;44.88;92501.34;4990694;28;20038;-76
2021/05/23 09:47:00;;;;;;;1.10;0.50;;;;;;;15.78;45.15;92499.25;4959023;28;20059;-76
2021/05/23 09:49:27;;;;;;;0.90;0.63;;;;;;;15.77;44.37;92498.50;4935812;29;20050;-77
2021/05/23 09:51:56;;;;;;;0.95;0.70;;;;;;;15.36;41.87;92491.94;4952978;29;20375;-77
2021/05/23 09:54:24;;;;;;;1.05;0.57;;;;;;;15.60;44.58;92501.97;4957170;28;20125;-76
2021/05/23 09:56:50;;;;;;;1.40;0.80;;;;;;;16.01;42.71;92503.19;4938915;28;20090;-77
2021/05/23 09:59:24;;;;;;;1.50;0.80;;;;;;;15.87;40.92;92502.63;4954994;28;20054;-77
2021/05/23 10:01:51;;;;;;;1.60;0.70;;;;;;;15.79;41.06;92516.66;4920257;29;20037;-77
2021/05/23 10:04:26;;;;;;;2.55;0.90;;;;;;;16.23;47.29;92515.34;4953052;29;20030;-77
2021/05/23 10:07:00;;;;;;;1.30;0.68;;;;;;;16.54;47.65;92513.44;4953156;29;20079;-76
2021/05/23 10:09:27;;;;;;;1.20;0.70;;;;;;;16.65;39.00;92514.59;4935694;29;20402;-77
2021/05/23 10:11:54;;;;;;;1.00;0.75;;;;;;;17.06;40.86;92513.03;4937821;29;20031;-76
2021/05/23 10:14:19;;;;;;;0.65;0.47;;;;;;;17.02;40.71;92504.19;4935609;29;20047;-76
2021/05/23 10:16:50;;;;;;;0.98;0.75;;;;;;;17.55;39.75;92523.75;4935574;29;20126;-76
2021/05/23 10:19:24;;;;;;;0.52;0.40;;;;;;;17.36;36.33;92520.84;4949745;28;20039;-76
2021/05/23 10:21:51;;;;;;;0.70;0.50;;;;;;;17.36;39.79;92526.13;4933245;29;20043;-76
2021/05/23 10:24:32;;;;;;;0.90;0.40;;;;;;;16.95;38.11;92522.47;4933508;29;20114;-76
2021/05/23 10:27:31;;;;;;;0.82;0.50;;;;;;;16.75;38.42;92521.34;4948269;29;20090;-76
2021/05/23 10:29:58;;;;;;;1.25;0.80;;;;;;;16.52;37.78;92531.47;4938247;28;20517;-76
2021/05/23 10:32:30;;;;;;;0.43;0.43;;;;;;;16.78;37.91;92524.13;4942157;28;20066;-76
2021/05/23 10:34:57;;;;;;;;;;;;;;;16.84;39.62;92522.09;4954443;28;20051;-76
2021/05/23 10:37:29;;;;;;;0.50;0.50;;;;;;;17.02;37.70;92522.72;4935499;29;19933;-76
2021/05/23 10:39:55;;;;;;;4.97;0.85;;;;;;;17.18;39.90;92521.03;4952989;29;20047;-76
2021/05/23 10:42:24;;;;;;;0.88;0.60;;;;;;;17.38;37.66;92524.72;4952927;29;20077;-76
2021/05/23 10:44:51;;;;;;;5.53;0.85;;;;;;;17.14;36.56;92529.94;4919516;29;20126;-76
2021/05/23 10:47:29;;;;;;;1.23;0.73;;;;;;;17.42;37.80;92532.78;4964933;28;20062;-76
2021/05/23 10:49:56;;;;;;;3.92;0.70;;;;;;;17.17;37.34;92535.34;4997916;28;20389;-76
2021/05/23 10:52:27;;;;;;;1.02;0.40;;;;;;;17.19;35.44;92529.72;4997714;28;20057;-76
2021/05/23 10:55:01;;;;;;;0.77;0.50;;;;;;;17.27;34.75;92534.19;4964367;28;20034;-76
2021/05/23 10:57:27;;;;;;;1.30;0.55;;;;;;;17.50;32.55;92529.28;4980563;28;20424;-76
2021/05/23 11:00:01;;;;;;;0.38;0.38;;;;;;;17.46;32.54;92528.38;4976723;28;20513;-76
2021/05/23 11:02:43;;;;;;;2.60;0.80;;;;;;;17.28;35.49;92523.25;4960508;28;20527;-76
2021/05/23 11:05:26;;;;;;;0.50;0.40;;;;;;;17.56;37.76;92514.75;4945020;28;20105;-76
2021/05/23 11:08:03;;;;;;;0.65;0.38;;;;;;;18.31;35.43;92524.28;4944803;28;20097;-76
2021/05/23 11:10:41;;;;;;;1.25;0.70;;;;;;;18.03;33.14;92522.28;4960734;28;20055;-76
2021/05/23 11:13:10;;;;;;;0.70;0.50;;;;;;;17.60;34.93;92512.97;4961495;28;20047;-76
2021/05/23 11:15:48;;;;;;;1.45;0.70;;;;;;;18.07;34.66;92527.72;4971808;28;20034;-76
2021/05/23 11:18:23;;;;;;;1.45;0.52;;;;;;;18.08;33.18;92530.03;4977857;28;20042;-76
2021/05/23 11:21:04;;;;;;;0.45;0.35;;;;;;;18.09;35.48;92520.97;4960521;28;20113;-76
2021/05/23 11:23:32;;;;;;;2.05;0.43;;;;;;;18.05;34.64;92522.72;4978587;28;20050;-76
2021/05/23 11:26:10;;;;;;;1.98;0.65;;;;;;;18.39;37.40;92522.59;4989731;28;20061;-76
2021/05/23 11:28:38;;;;;;;0.65;0.50;;;;;;;19.06;36.03;92517.72;4953783;28;20050;-76
2021/05/23 11:31:04;;;;;;;2.40;0.60;;;;;;;18.71;32.42;92521.69;4960601;28;20070;-76
2021/05/23 11:33:30;;;;;;;0.60;0.40;;;;;;;18.42;33.23;92503.41;4960569;28;20097;-76
2021/05/23 11:35:56;;;;;;;0.68;0.45;;;;;;;18.49;35.29;92499.09;4960254;28;20050;-77
2021/05/23 11:38:33;;;;;;;0.93;0.43;;;;;;;18.29;34.60;92508.72;4976472;28;20039;-77